Time;durP1;ratioP1;P1;durP2;ratioP2;P2;SDS_P1;SDS_P2;PMS_P1;PMS_P2;Temp;Humidity;BMP_temperature;BMP_pressure;BME280_temperature;BME280_humidity;BME280_pressure;Samples;Min_cycle;Max_cycle;Signal;HPM_P1;HPM_P2
2021/04/19 00:01:33;;;;;;;20.47;13.93;;;7.40;99.90;;;;;;5024629;28;21049;-48
2021/04/19 00:04:00;;;;;;;19.60;13.30;;;7.40;99.90;;;;;;5016277;28;20257;-55
2021/04/19 00:06:26;;;;;;;17.53;12.83;;;7.40;99.90;;;;;;5018412;28;20258;-48
2021/04/19 00:08:53;;;;;;;23.67;13.40;;;7.40;99.90;;;;;;5020262;28;20679;-56
2021/04/19 00:11:20;;;;;;;20.10;12.50;;;7.30;99.90;;;;;;5022984;28;21019;-52
2021/04/19 00:13:46;;;;;;;21.13;12.70;;;7.30;99.90;;;;;;5015249;28;20212;-56
2021/04/19 00:16:12;;;;;;;23.73;13.83;;;7.30;99.90;;;;;;5021578;28;20180;-48
2021/04/19 00:18:39;;;;;;;25.33;14.60;;;7.30;99.90;;;;;;5024498;28;20303;-48
2021/04/19 00:21:05;;;;;;;25.87;14.83;;;7.20;99.90;;;;;;5010796;28;20216;-51
2021/04/19 00:23:31;;;;;;;23.50;13.90;;;7.20;99.90;;;;;;5022909;28;20210;-49
2021/04/19 00:25:58;;;;;;;21.60;13.43;;;7.10;99.90;;;;;;5020673;28;20211;-55
2021/04/19 00:28:25;;;;;;;25.23;13.77;;;7.10;99.90;;;;;;5023522;28;20210;-47
2021/04/19 00:30:51;;;;;;;23.30;14.07;;;7.10;99.90;;;;;;5009990;28;20224;-56
2021/04/19 00:33:17;;;;;;;22.20;14.57;;;7.10;99.90;;;;;;5022096;28;20940;-49
2021/04/19 00:35:43;;;;;;;22.50;14.00;;;7.10;99.90;;;;;;5017742;28;20196;-56
2021/04/19 00:38:09;;;;;;;22.97;13.50;;;7.10;99.90;;;;;;5017217;28;20204;-52
2021/04/19 00:40:38;;;;;;;26.87;13.90;;;7.00;99.90;;;;;;5023654;28;20597;-50
2021/04/19 00:43:05;;;;;;;26.63;13.97;;;7.00;99.90;;;;;;5019735;28;20275;-48
2021/04/19 00:45:32;;;;;;;20.97;13.37;;;7.00;99.90;;;;;;5011227;28;20208;-48
2021/04/19 00:47:58;;;;;;;20.90;14.03;;;7.00;99.90;;;;;;5020415;28;20210;-55
2021/04/19 00:50:28;;;;;;;23.47;14.00;;;7.00;99.90;;;;;;5023599;28;20315;-48
2021/04/19 00:52:54;;;;;;;24.30;13.23;;;7.00;99.90;;;;;;5012953;28;20242;-56
2021/04/19 00:55:21;;;;;;;25.57;14.93;;;6.90;99.90;;;;;;5022579;28;20198;-49
2021/04/19 00:57:47;;;;;;;19.67;13.77;;;6.80;99.90;;;;;;5021032;28;20579;-55
2021/04/19 01:00:19;;;;;;;20.83;13.33;;;6.80;99.90;;;;;;5010859;28;20220;-47
2021/04/19 01:02:46;;;;;;;22.40;13.23;;;6.80;99.90;;;;;;5022810;28;20284;-55
2021/04/19 01:05:16;;;;;;;26.97;14.73;;;6.80;99.90;;;;;;5021032;28;20199;-47
2021/04/19 01:07:44;;;;;;;25.50;14.47;;;6.80;99.90;;;;;;5015921;28;20211;-56
2021/04/19 01:10:11;;;;;;;23.50;14.73;;;6.80;99.90;;;;;;5020467;28;20696;-48
2021/04/19 01:12:38;;;;;;;24.20;14.17;;;6.70;99.90;;;;;;5023634;28;20208;-47
2021/04/19 01:15:06;;;;;;;25.43;14.70;;;6.70;99.90;;;;;;5007798;28;20208;-47
2021/04/19 01:17:33;;;;;;;23.50;14.83;;;6.70;99.90;;;;;;5010593;28;20313;-47
2021/04/19 01:20:00;;;;;;;23.43;15.03;;;6.60;99.90;;;;;;5023017;28;20294;-49
2021/04/19 01:22:29;;;;;;;22.33;14.63;;;6.70;99.90;;;;;;5013843;28;20808;-52
2021/04/19 01:24:55;;;;;;;24.70;14.83;;;6.60;99.90;;;;;;5022688;28;20734;-47
2021/04/19 01:27:21;;;;;;;20.50;14.07;;;6.60;99.90;;;;;;5018265;28;20605;-56
2021/04/19 01:29:48;;;;;;;22.27;15.43;;;6.60;99.90;;;;;;5011023;28;20224;-48
2021/04/19 01:32:14;;;;;;;24.93;15.43;;;6.50;99.90;;;;;;5021031;28;20202;-50
2021/04/19 01:34:40;;;;;;;24.77;16.17;;;6.50;99.90;;;;;;5021747;28;20203;-47
2021/04/19 01:37:07;;;;;;;23.33;16.00;;;6.40;99.90;;;;;;5022278;28;20319;-57
2021/04/19 01:39:35;;;;;;;29.70;17.83;;;6.40;99.90;;;;;;5013435;28;20258;-47
2021/04/19 01:42:01;;;;;;;25.77;17.33;;;6.50;99.90;;;;;;5023411;28;20290;-51
2021/04/19 01:44:28;;;;;;;26.17;17.20;;;6.50;99.90;;;;;;5020140;28;20192;-49
2021/04/19 01:46:55;;;;;;;24.87;16.73;;;6.50;99.90;;;;;;5010019;28;20204;-47
2021/04/19 01:49:23;;;;;;;25.23;16.40;;;6.40;99.90;;;;;;5017833;28;20200;-58
2021/04/19 01:51:49;;;;;;;29.27;15.63;;;6.40;99.90;;;;;;5023131;28;20224;-47
2021/04/19 01:54:16;;;;;;;21.60;15.00;;;6.40;99.90;;;;;;5015867;28;20215;-57
2021/04/19 01:56:43;;;;;;;29.07;16.97;;;6.30;99.90;;;;;;5021725;28;20192;-51
2021/04/19 01:59:10;;;;;;;27.97;15.97;;;6.30;99.90;;;;;;5021553;28;20192;-55
2021/04/19 02:01:42;;;;;;;26.23;16.87;;;6.20;99.90;;;;;;5008668;28;20222;-48
2021/04/19 02:04:14;;;;;;;21.23;15.40;;;6.20;99.90;;;;;;5020215;28;20666;-57
2021/04/19 02:06:51;;;;;;;29.03;16.57;;;6.20;99.90;;;;;;5022109;28;20344;-47
2021/04/19 02:09:24;;;;;;;32.67;17.90;;;6.10;99.90;;;;;;5013886;28;20228;-56
2021/04/19 02:12:02;;;;;;;25.60;16.60;;;6.10;99.90;;;;;;5026855;28;20199;-47
2021/04/19 02:14:38;;;;;;;28.33;17.13;;;6.10;99.90;;;;;;5021989;28;20238;-49
2021/04/19 02:17:14;;;;;;;25.77;16.03;;;6.10;99.90;;;;;;5012769;28;20250;-57
2021/04/19 02:19:48;;;;;;;29.70;16.67;;;6.10;99.90;;;;;;5024120;28;20282;-50
2021/04/19 02:22:18;;;;;;;27.83;17.20;;;6.10;99.90;;;;;;5024562;28;20227;-57
2021/04/19 02:24:48;;;;;;;28.97;17.60;;;6.00;99.90;;;;;;5017424;28;20212;-53
2021/04/19 02:27:23;;;;;;;25.97;14.93;;;6.00;99.90;;;;;;5023693;28;20208;-57
2021/04/19 02:29:59;;;;;;;23.00;16.77;;;5.90;99.90;;;;;;5021672;28;20235;-50
2021/04/19 02:32:32;;;;;;;25.03;16.07;;;5.90;99.90;;;;;;5010774;28;20204;-48
2021/04/19 02:35:02;;;;;;;27.93;16.57;;;5.90;99.90;;;;;;5019411;28;20200;-53
2021/04/19 02:37:31;;;;;;;27.27;16.83;;;5.90;99.90;;;;;;5023942;28;20594;-56
2021/04/19 02:39:58;;;;;;;22.17;16.77;;;5.80;99.90;;;;;;5017807;28;20250;-49
2021/04/19 02:42:27;;;;;;;26.87;16.27;;;5.80;99.90;;;;;;5025101;28;20288;-48
2021/04/19 02:44:55;;;;;;;26.13;17.33;;;5.70;99.90;;;;;;5022767;28;20200;-48
2021/04/19 02:47:31;;;;;;;28.37;17.07;;;5.70;99.90;;;;;;5011755;28;20204;-55
2021/04/19 02:50:13;;;;;;;27.40;17.00;;;5.70;99.90;;;;;;5024254;28;20227;-49
2021/04/19 02:52:39;;;;;;;25.87;16.93;;;5.70;99.90;;;;;;5017294;28;20188;-56
2021/04/19 02:55:07;;;;;;;26.50;17.47;;;5.70;99.90;;;;;;5024835;28;20195;-52
2021/04/19 02:57:39;;;;;;;30.20;17.07;;;5.60;99.90;;;;;;5016429;28;20212;-56
2021/04/19 03:00:07;;;;;;;28.00;17.60;;;5.60;99.90;;;;;;5022925;28;20224;-51
2021/04/19 03:02:36;;;;;;;29.17;16.77;;;5.60;99.90;;;;;;5011271;28;20262;-57
2021/04/19 03:05:06;;;;;;;29.50;17.23;;;5.70;99.90;;;;;;5024242;28;20195;-48
2021/04/19 03:07:37;;;;;;;25.03;17.37;;;5.70;99.90;;;;;;5023000;28;20196;-55
2021/04/19 03:10:11;;;;;;;38.47;18.60;;;5.70;99.90;;;;;;5022555;28;20935;-48
2021/04/19 03:12:42;;;;;;;27.53;18.80;;;5.80;99.90;;;;;;5016614;28;20299;-56
2021/04/19 03:15:15;;;;;;;46.20;22.77;;;5.80;99.90;;;;;;5023687;28;20678;-51
2021/04/19 03:17:47;;;;;;;40.90;24.30;;;5.80;99.90;;;;;;5008553;28;20963;-53
2021/04/19 03:20:18;;;;;;;41.23;22.50;;;5.90;99.90;;;;;;5023583;28;20585;-48
2021/04/19 03:22:55;;;;;;;43.73;23.17;;;6.00;99.90;;;;;;5020133;28;20283;-50
2021/04/19 03:25:28;;;;;;;50.60;23.60;;;6.00;99.90;;;;;;5012023;28;20204;-58
2021/04/19 03:27:57;;;;;;;42.13;24.73;;;6.00;99.90;;;;;;5011421;28;20208;-52
2021/04/19 03:30:25;;;;;;;44.00;25.33;;;6.00;99.90;;;;;;5019903;28;20727;-56
2021/04/19 03:32:58;;;;;;;46.17;24.50;;;6.10;99.90;;;;;;5014200;28;20672;-50
2021/04/19 03:35:31;;;;;;;42.63;24.03;;;6.10;99.90;;;;;;5019742;28;20208;-57
2021/04/19 03:38:00;;;;;;;48.27;25.07;;;6.10;99.90;;;;;;5027083;28;20251;-49
2021/04/19 03:40:30;;;;;;;46.53;26.60;;;6.10;99.90;;;;;;5019163;28;20220;-57
2021/04/19 03:43:09;;;;;;;53.30;27.07;;;6.10;99.90;;;;;;5018632;28;20212;-49
2021/04/19 03:45:41;;;;;;;48.53;26.23;;;6.10;99.90;;;;;;5020612;28;20196;-52
2021/04/19 03:48:30;;;;;;;48.13;25.73;;;6.10;99.90;;;;;;5003905;28;20260;-51
2021/04/19 03:51:07;;;;;;;76.40;26.70;;;6.10;99.90;;;;;;5029038;28;20621;-51
2021/04/19 03:53:41;;;;;;;69.77;24.60;;;6.10;99.90;;;;;;5020580;28;20316;-48
2021/04/19 03:56:10;;;;;;;71.53;24.07;;;6.10;99.90;;;;;;5025047;28;20210;-57
2021/04/19 03:58:47;;;;;;;69.73;25.77;;;6.10;99.90;;;;;;5016442;28;20362;-51
2021/04/19 04:01:15;;;;;;;49.60;23.20;;;6.10;99.90;;;;;;5014586;28;20227;-55
2021/04/19 04:03:48;;;;;;;84.87;24.60;;;6.10;99.90;;;;;;5009552;28;20219;-48
2021/04/19 04:06:33;;;;;;;41.43;22.77;;;6.10;99.90;;;;;;5011736;28;20265;-48
2021/04/19 04:09:01;;;;;;;50.03;24.90;;;6.10;99.90;;;;;;5024044;28;20201;-48
2021/04/19 04:11:27;;;;;;;55.70;22.97;;;6.10;99.90;;;;;;5018478;28;20236;-57
2021/04/19 04:14:05;;;;;;;40.83;23.17;;;6.10;99.90;;;;;;5018751;28;20754;-47
2021/04/19 04:16:34;;;;;;;54.57;23.10;;;6.10;99.90;;;;;;5019035;28;20219;-50
2021/04/19 04:19:06;;;;;;;48.50;21.73;;;6.10;99.90;;;;;;5013865;28;20231;-52
2021/04/19 04:21:39;;;;;;;69.70;23.33;;;6.10;99.90;;;;;;5011916;28;20223;-48
2021/04/19 04:24:16;;;;;;;70.80;22.60;;;6.10;99.90;;;;;;5020708;28;20200;-54
2021/04/19 04:26:42;;;;;;;71.53;24.47;;;6.10;99.90;;;;;;5020617;28;20915;-52
2021/04/19 04:29:09;;;;;;;55.20;25.03;;;6.10;99.90;;;;;;5018533;28;20245;-56
2021/04/19 04:31:42;;;;;;;36.70;21.30;;;6.10;99.90;;;;;;5012745;28;20243;-48
2021/04/19 04:34:13;;;;;;;45.67;21.17;;;6.10;99.90;;;;;;5011642;28;20192;-57
2021/04/19 04:36:39;;;;;;;44.47;21.03;;;6.10;99.90;;;;;;5017009;28;20226;-49
2021/04/19 04:39:11;;;;;;;50.93;21.20;;;6.00;99.90;;;;;;5009312;28;20223;-56
2021/04/19 04:41:46;;;;;;;41.77;20.77;;;6.00;99.90;;;;;;5024020;28;20231;-47
2021/04/19 04:44:16;;;;;;;62.73;21.60;;;6.00;99.90;;;;;;5016430;28;20286;-56
2021/04/19 04:46:50;;;;;;;38.27;20.10;;;6.00;99.90;;;;;;5015052;28;20561;-48
2021/04/19 04:49:22;;;;;;;42.93;21.17;;;6.10;99.90;;;;;;5005768;28;20191;-56
2021/04/19 04:51:49;;;;;;;36.67;21.93;;;6.10;99.90;;;;;;5017196;28;20211;-49
2021/04/19 04:54:20;;;;;;;41.87;21.03;;;6.00;99.90;;;;;;5008641;28;20663;-56
2021/04/19 04:56:52;;;;;;;42.60;20.70;;;6.00;99.90;;;;;;5023634;28;20227;-47
2021/04/19 04:59:21;;;;;;;37.07;20.20;;;6.10;99.90;;;;;;5019064;28;20246;-57
2021/04/19 05:01:49;;;;;;;43.43;19.60;;;6.10;99.90;;;;;;5017823;28;20227;-52
2021/04/19 05:04:15;;;;;;;38.93;18.60;;;6.10;99.90;;;;;;5020200;28;20211;-56
2021/04/19 05:06:42;;;;;;;38.50;18.90;;;6.20;99.90;;;;;;5009491;28;20211;-52
2021/04/19 05:09:09;;;;;;;48.70;20.50;;;6.20;99.90;;;;;;5003973;28;20189;-49
2021/04/19 05:11:36;;;;;;;47.87;19.53;;;6.20;99.90;;;;;;5017217;28;20358;-55
2021/04/19 05:14:03;;;;;;;58.30;19.03;;;6.20;99.90;;;;;;5016135;28;20199;-51
2021/04/19 05:16:31;;;;;;;60.80;18.53;;;6.30;99.90;;;;;;5016198;28;20331;-57
2021/04/19 05:18:59;;;;;;;61.90;19.27;;;6.20;99.90;;;;;;5019250;28;20314;-51
2021/04/19 05:21:26;;;;;;;50.30;19.20;;;6.20;99.90;;;;;;5008700;28;20230;-55
2021/04/19 05:23:52;;;;;;;38.20;18.83;;;6.30;99.90;;;;;;4996808;28;20213;-51
2021/04/19 05:26:20;;;;;;;37.17;18.07;;;6.30;99.90;;;;;;5021314;28;21162;-51
2021/04/19 05:28:46;;;;;;;43.70;18.50;;;6.30;99.90;;;;;;5007475;28;20207;-48
2021/04/19 05:31:13;;;;;;;74.00;18.87;;;6.30;99.90;;;;;;5008098;28;20243;-56
2021/04/19 05:33:40;;;;;;;50.70;17.60;;;6.30;99.90;;;;;;5019632;28;20215;-53
2021/04/19 05:36:08;;;;;;;41.40;18.00;;;6.30;99.90;;;;;;5003904;28;20204;-57
2021/04/19 05:38:35;;;;;;;36.77;18.33;;;6.40;99.90;;;;;;5009694;28;20227;-51
2021/04/19 05:41:02;;;;;;;72.73;20.97;;;6.40;99.90;;;;;;5013245;28;20278;-56
2021/04/19 05:43:28;;;;;;;47.40;19.30;;;6.50;99.90;;;;;;5014036;28;20208;-52
2021/04/19 05:45:56;;;;;;;33.83;19.60;;;6.60;99.90;;;;;;5022230;28;20282;-53
2021/04/19 05:48:23;;;;;;;51.93;19.77;;;6.60;99.90;;;;;;5013479;28;20198;-47
2021/04/19 05:50:54;;;;;;;35.83;19.07;;;6.70;99.90;;;;;;5025807;28;20631;-51
2021/04/19 05:53:21;;;;;;;40.73;18.63;;;6.70;99.90;;;;;;5008786;28;20208;-49
2021/04/19 05:55:48;;;;;;;57.83;19.33;;;6.70;99.90;;;;;;5019196;28;20219;-51
2021/04/19 05:58:20;;;;;;;38.23;19.23;;;6.60;99.90;;;;;;5018143;28;20303;-56
2021/04/19 06:00:50;;;;;;;41.77;19.53;;;6.70;99.90;;;;;;5024545;28;20642;-47
2021/04/19 06:03:21;;;;;;;54.80;20.13;;;6.70;99.90;;;;;;5015635;28;20188;-49
2021/04/19 06:05:58;;;;;;;45.93;18.87;;;6.80;99.90;;;;;;5024661;28;20204;-54
2021/04/19 06:08:30;;;;;;;37.30;19.33;;;6.80;99.90;;;;;;4998367;28;20221;-55
2021/04/19 06:11:16;;;;;;;33.57;19.80;;;6.90;99.90;;;;;;5002508;28;20236;-47
2021/04/19 06:13:57;;;;;;;48.97;20.33;;;6.90;99.90;;;;;;5020063;28;20199;-56
2021/04/19 06:16:25;;;;;;;38.87;19.60;;;6.90;99.90;;;;;;5012010;28;20200;-47
2021/04/19 06:18:53;;;;;;;45.30;19.87;;;7.00;99.90;;;;;;5017368;28;20739;-57
2021/04/19 06:21:20;;;;;;;36.50;18.57;;;7.00;99.90;;;;;;5013054;28;20816;-46
2021/04/19 06:23:47;;;;;;;42.70;19.17;;;7.00;99.90;;;;;;5024981;28;20196;-55
2021/04/19 06:26:13;;;;;;;45.03;19.70;;;7.00;99.90;;;;;;5006543;28;20221;-47
2021/04/19 06:28:39;;;;;;;37.97;20.03;;;7.00;99.90;;;;;;5023910;28;20220;-53
2021/04/19 06:31:08;;;;;;;49.07;19.83;;;7.00;99.90;;;;;;5008076;28;20311;-51
2021/04/19 06:33:34;;;;;;;37.53;19.80;;;7.00;99.90;;;;;;5026021;28;20577;-50
2021/04/19 06:36:00;;;;;;;38.60;20.17;;;7.10;99.90;;;;;;5014995;28;20242;-56
2021/04/19 06:38:27;;;;;;;38.17;19.07;;;7.20;99.90;;;;;;5024305;28;20228;-51
2021/04/19 06:40:54;;;;;;;32.30;18.33;;;7.20;99.90;;;;;;5007936;28;20298;-51
2021/04/19 06:43:20;;;;;;;42.67;20.40;;;7.20;99.90;;;;;;5018730;28;20266;-51
2021/04/19 06:45:47;;;;;;;33.57;18.93;;;7.30;99.90;;;;;;5011915;28;20215;-57
2021/04/19 06:48:13;;;;;;;40.33;19.47;;;7.30;99.90;;;;;;5015499;28;20212;-48
2021/04/19 06:50:40;;;;;;;56.83;18.77;;;7.40;99.90;;;;;;5023219;28;20306;-54
2021/04/19 06:53:06;;;;;;;36.33;19.17;;;7.40;99.90;;;;;;5011750;28;20351;-50
2021/04/19 06:55:36;;;;;;;32.40;18.77;;;7.30;99.90;;;;;;5014669;28;20226;-51
2021/04/19 06:58:04;;;;;;;33.70;18.90;;;7.30;99.90;;;;;;5015902;28;20236;-47
2021/04/19 07:00:32;;;;;;;38.63;19.63;;;7.30;99.90;;;;;;5016352;28;20230;-47
2021/04/19 07:03:00;;;;;;;33.80;19.33;;;7.40;99.90;;;;;;5021762;28;20477;-47
2021/04/19 07:05:29;;;;;;;33.03;18.73;;;7.50;99.90;;;;;;5025667;28;20577;-46
2021/04/19 07:08:07;;;;;;;49.10;19.30;;;7.50;99.90;;;;;;5016428;28;20932;-48
2021/04/19 07:10:35;;;;;;;33.23;18.40;;;7.50;99.90;;;;;;5000008;28;20231;-47
2021/04/19 07:13:07;;;;;;;34.17;18.53;;;7.50;99.90;;;;;;5020747;28;20188;-57
2021/04/19 07:15:35;;;;;;;33.90;19.63;;;7.50;99.90;;;;;;5008977;28;20212;-50
2021/04/19 07:18:03;;;;;;;33.57;17.03;;;7.50;99.90;;;;;;5017638;28;20213;-55
2021/04/19 07:20:29;;;;;;;29.80;18.60;;;7.60;99.90;;;;;;5016407;28;20811;-47
2021/04/19 07:22:56;;;;;;;32.60;18.13;;;7.60;99.90;;;;;;5014691;28;20208;-56
2021/04/19 07:25:22;;;;;;;26.93;17.57;;;7.60;99.90;;;;;;5015309;28;20188;-47
2021/04/19 07:27:50;;;;;;;29.80;17.57;;;7.70;99.90;;;;;;5013218;28;20207;-48
2021/04/19 07:30:17;;;;;;;35.80;16.67;;;7.70;99.90;;;;;;5012335;28;20219;-47
2021/04/19 07:32:44;;;;;;;27.90;16.37;;;7.80;99.90;;;;;;5011423;28;20204;-48
2021/04/19 07:35:11;;;;;;;29.40;17.07;;;7.80;99.90;;;;;;5020754;28;20282;-53
2021/04/19 07:37:38;;;;;;;45.30;18.83;;;7.90;99.90;;;;;;5004325;28;20225;-53
2021/04/19 07:40:05;;;;;;;35.83;17.93;;;7.80;99.90;;;;;;5021810;28;20206;-50
2021/04/19 07:42:36;;;;;;;28.10;17.43;;;7.90;99.90;;;;;;5006366;28;20299;-56
2021/04/19 07:45:05;;;;;;;29.80;16.80;;;7.80;99.90;;;;;;5005873;28;20291;-49
2021/04/19 07:47:35;;;;;;;24.57;15.53;;;7.90;99.90;;;;;;5006798;28;20215;-52
2021/04/19 07:50:08;;;;;;;27.03;16.60;;;8.00;99.90;;;;;;5015035;28;20216;-51
2021/04/19 07:52:36;;;;;;;29.43;16.97;;;8.00;99.90;;;;;;5014000;28;20208;-55
2021/04/19 07:55:12;;;;;;;28.63;18.10;;;8.10;99.90;;;;;;5020817;28;20196;-51
2021/04/19 07:57:39;;;;;;;23.50;15.33;;;8.10;99.90;;;;;;5008950;28;20302;-57
2021/04/19 08:00:08;;;;;;;30.63;17.67;;;8.10;99.90;;;;;;5006906;28;20230;-54
2021/04/19 08:02:38;;;;;;;24.73;15.40;;;8.20;99.90;;;;;;5015277;28;20376;-46
2021/04/19 08:05:06;;;;;;;25.17;16.13;;;8.10;99.90;;;;;;5013815;28;20200;-56
2021/04/19 08:07:33;;;;;;;24.70;15.70;;;8.20;99.90;;;;;;5014224;28;20978;-46
2021/04/19 08:10:01;;;;;;;27.83;16.00;;;8.20;99.90;;;;;;5025196;28;20216;-48
2021/04/19 08:12:36;;;;;;;25.43;15.47;;;8.30;99.90;;;;;;5014796;28;20286;-49
2021/04/19 08:15:04;;;;;;;21.90;14.73;;;8.30;99.90;;;;;;4999671;28;20218;-57
2021/04/19 08:17:33;;;;;;;23.70;14.73;;;8.40;99.90;;;;;;5020025;28;20196;-51
2021/04/19 08:20:00;;;;;;;25.83;15.80;;;8.50;99.90;;;;;;5022689;28;20223;-47
2021/04/19 08:22:28;;;;;;;22.13;14.77;;;8.60;99.90;;;;;;5020221;28;20266;-49
2021/04/19 08:25:13;;;;;;;22.30;14.63;;;8.80;99.90;;;;;;5023836;28;20199;-48
2021/04/19 08:27:41;;;;;;;21.67;14.80;;;8.80;99.90;;;;;;5022310;28;20952;-47
2021/04/19 08:30:09;;;;;;;22.10;14.13;;;8.90;99.90;;;;;;5005232;28;20893;-56
2021/04/19 08:32:37;;;;;;;20.17;13.97;;;9.00;99.90;;;;;;5021322;28;20274;-50
2021/04/19 08:35:04;;;;;;;23.73;14.57;;;9.10;99.90;;;;;;5023462;28;20206;-56
2021/04/19 08:37:30;;;;;;;24.63;15.20;;;9.20;99.90;;;;;;5020307;28;20180;-49
2021/04/19 08:39:58;;;;;;;25.70;14.67;;;9.20;99.90;;;;;;5023228;28;20222;-49
2021/04/19 08:42:26;;;;;;;25.43;15.07;;;9.20;99.90;;;;;;5019560;28;20908;-49
2021/04/19 08:44:55;;;;;;;22.87;15.33;;;9.20;99.90;;;;;;5011991;28;20203;-51
2021/04/19 08:47:26;;;;;;;23.70;15.03;;;9.20;99.90;;;;;;5019138;28;20207;-48
2021/04/19 08:49:55;;;;;;;21.87;14.63;;;9.20;99.90;;;;;;5023388;28;20370;-48
2021/04/19 08:52:21;;;;;;;23.37;15.10;;;9.10;99.90;;;;;;5019642;28;20196;-51
2021/04/19 08:54:48;;;;;;;25.53;16.10;;;9.10;99.90;;;;;;5023131;28;20662;-46
2021/04/19 08:57:14;;;;;;;22.27;14.83;;;9.10;99.90;;;;;;5015725;28;20208;-55
2021/04/19 08:59:43;;;;;;;24.17;14.70;;;9.10;99.90;;;;;;5025136;28;20468;-47
2021/04/19 09:02:09;;;;;;;17.03;12.40;;;9.10;99.90;;;;;;5008339;28;20238;-55
2021/04/19 09:04:36;;;;;;;20.47;14.03;;;9.10;99.90;;;;;;5021236;28;20192;-47
2021/04/19 09:07:03;;;;;;;23.37;14.80;;;9.30;99.90;;;;;;5026654;28;20233;-55
2021/04/19 09:09:39;;;;;;;20.63;14.50;;;9.30;99.90;;;;;;5015338;28;20957;-51
2021/04/19 09:12:26;;;;;;;22.43;14.43;;;9.50;99.90;;;;;;5016743;28;20196;-54
2021/04/19 09:15:09;;;;;;;22.37;14.73;;;9.60;99.90;;;;;;5016612;28;20216;-48
2021/04/19 09:17:37;;;;;;;24.33;15.53;;;9.70;99.90;;;;;;5006972;28;20762;-51
2021/04/19 09:20:07;;;;;;;21.43;13.90;;;9.80;99.90;;;;;;5015903;28;20581;-56
2021/04/19 09:22:35;;;;;;;20.10;13.23;;;9.90;99.90;;;;;;5019422;28;20188;-50
2021/04/19 09:25:06;;;;;;;21.77;14.50;;;10.00;99.90;;;;;;5018207;28;20196;-56
2021/04/19 09:27:46;;;;;;;19.23;13.87;;;10.20;99.90;;;;;;5010066;28;20351;-50
2021/04/19 09:30:35;;;;;;;23.43;14.93;;;10.40;99.90;;;;;;5013418;28;20330;-56
2021/04/19 09:33:19;;;;;;;20.80;13.77;;;10.60;99.90;;;;;;5007782;28;20208;-55
2021/04/19 09:35:46;;;;;;;18.87;12.87;;;10.70;99.90;;;;;;5019608;28;20258;-46
2021/04/19 09:38:15;;;;;;;18.17;12.53;;;10.70;99.90;;;;;;5020197;28;20208;-56
2021/04/19 09:40:48;;;;;;;17.33;12.37;;;10.70;99.90;;;;;;5019646;28;20224;-46
2021/04/19 09:43:30;;;;;;;18.97;13.17;;;10.70;99.90;;;;;;5023696;28;20657;-54
2021/04/19 09:45:58;;;;;;;21.13;13.67;;;10.90;99.90;;;;;;5020327;28;20230;-52
2021/04/19 09:48:44;;;;;;;18.77;13.17;;;11.10;99.90;;;;;;5007014;28;20829;-51
2021/04/19 09:51:14;;;;;;;18.53;12.63;;;11.20;99.90;;;;;;5015206;28;20285;-56
2021/04/19 09:53:45;;;;;;;18.20;12.50;;;11.40;99.90;;;;;;5015761;28;20285;-51
2021/04/19 09:56:11;;;;;;;18.43;13.57;;;11.50;99.90;;;;;;5020291;28;20605;-57
2021/04/19 09:58:38;;;;;;;17.93;13.20;;;11.50;99.90;;;;;;4998875;28;20223;-53
2021/04/19 10:01:05;;;;;;;15.60;11.73;;;11.70;99.90;;;;;;5017594;28;20223;-56
2021/04/19 10:03:33;;;;;;;15.87;11.43;;;11.60;99.90;;;;;;5007423;28;21736;-50
2021/04/19 10:06:02;;;;;;;17.73;11.57;;;11.70;99.90;;;;;;5021239;28;20598;-54
2021/04/19 10:08:30;;;;;;;12.43;10.87;;;11.90;99.90;;;;;;5016904;28;20195;-49
2021/04/19 10:10:58;;;;;;;16.23;11.67;;;12.00;99.90;;;;;;5021891;28;20557;-56
2021/04/19 10:13:29;;;;;;;15.90;11.93;;;12.00;99.90;;;;;;5018437;28;20199;-48
2021/04/19 10:16:03;;;;;;;14.30;11.00;;;12.10;99.90;;;;;;5021917;28;20227;-51
2021/04/19 10:18:30;;;;;;;18.27;10.57;;;12.20;99.90;;;;;;5019787;28;20941;-49
2021/04/19 10:20:56;;;;;;;13.80;10.77;;;12.30;99.90;;;;;;5010456;28;20228;-55
2021/04/19 10:23:32;;;;;;;14.73;11.30;;;12.50;99.90;;;;;;5015205;28;20862;-46
2021/04/19 10:25:59;;;;;;;14.53;11.00;;;12.50;99.90;;;;;;5019437;28;20261;-54
2021/04/19 10:28:30;;;;;;;15.60;11.77;;;12.50;99.90;;;;;;5019244;28;20357;-49
2021/04/19 10:31:10;;;;;;;12.73;10.73;;;12.60;99.90;;;;;;5018585;28;20220;-56
2021/04/19 10:33:37;;;;;;;13.30;11.50;;;12.70;99.90;;;;;;5014085;28;20212;-51
2021/04/19 10:36:15;;;;;;;12.90;10.67;;;12.70;99.90;;;;;;5000852;28;20284;-53
2021/04/19 10:38:42;;;;;;;14.83;10.67;;;12.80;99.90;;;;;;5021236;28;20310;-51
2021/04/19 10:41:10;;;;;;;11.50;10.23;;;12.80;99.90;;;;;;5012908;28;20246;-58
2021/04/19 10:43:36;;;;;;;12.10;10.90;;;12.70;99.90;;;;;;5010594;28;20203;-52
2021/04/19 10:46:18;;;;;;;12.70;11.00;;;12.70;99.90;;;;;;5020231;28;21007;-48
2021/04/19 10:48:44;;;;;;;13.47;11.40;;;12.70;99.90;;;;;;5006485;28;20306;-54
2021/04/19 10:51:19;;;;;;;12.40;11.03;;;12.80;99.90;;;;;;5010214;28;20228;-51
2021/04/19 10:53:45;;;;;;;13.57;11.03;;;12.90;99.90;;;;;;5022965;28;20235;-56
2021/04/19 10:56:21;;;;;;;10.73;9.63;;;13.00;99.90;;;;;;5023084;28;20286;-53
2021/04/19 10:58:49;;;;;;;10.23;9.23;;;13.10;99.90;;;;;;5017812;28;20259;-55
2021/04/19 11:01:21;;;;;;;11.43;9.83;;;13.40;99.90;;;;;;5023464;28;20241;-52
2021/04/19 11:03:48;;;;;;;11.50;9.87;;;13.60;99.90;;;;;;5021845;28;20208;-60
2021/04/19 11:06:16;;;;;;;12.17;10.40;;;13.70;99.90;;;;;;5008481;28;20964;-48
2021/04/19 11:08:54;;;;;;;11.90;9.50;;;13.70;99.90;;;;;;5016448;28;20203;-55
2021/04/19 11:11:32;;;;;;;11.30;9.23;;;13.70;99.90;;;;;;5020396;28;20230;-57
2021/04/19 11:14:13;;;;;;;13.57;10.03;;;13.80;99.90;;;;;;5011630;28;20942;-47
2021/04/19 11:16:54;;;;;;;11.77;9.20;;;13.90;99.90;;;;;;5019868;28;20196;-58
2021/04/19 11:19:40;;;;;;;12.03;8.60;;;14.00;99.90;;;;;;5023364;28;20743;-47
2021/04/19 11:22:23;;;;;;;9.87;8.50;;;14.00;99.90;;;;;;5004603;28;20200;-45
2021/04/19 11:24:50;;;;;;;11.23;7.97;;;14.10;99.90;;;;;;5020312;28;20204;-57
2021/04/19 11:27:24;;;;;;;7.07;6.47;;;14.20;99.90;;;;;;5022542;28;20208;-47
2021/04/19 11:29:50;;;;;;;8.07;6.90;;;14.30;99.90;;;;;;5015804;28;20215;-59
2021/04/19 11:32:31;;;;;;;7.27;6.47;;;14.30;99.90;;;;;;5023795;28;20192;-46
2021/04/19 11:34:57;;;;;;;8.23;7.43;;;14.50;99.90;;;;;;5020519;28;20356;-52
2021/04/19 11:37:35;;;;;;;8.83;7.43;;;14.70;99.90;;;;;;5009062;28;20208;-50
2021/04/19 11:40:02;;;;;;;7.70;6.90;;;14.90;99.90;;;;;;5020579;28;20241;-48
2021/04/19 11:42:34;;;;;;;7.57;6.77;;;14.80;99.90;;;;;;5022756;28;20204;-49
2021/04/19 11:45:02;;;;;;;7.47;6.17;;;14.90;99.90;;;;;;5022524;28;20194;-49
2021/04/19 11:47:28;;;;;;;7.37;6.67;;;14.80;99.90;;;;;;5022633;28;20235;-48
2021/04/19 11:49:57;;;;;;;7.23;6.63;;;14.80;99.90;;;;;;5019362;28;20709;-49
2021/04/19 11:52:23;;;;;;;7.33;6.50;;;14.90;99.90;;;;;;5024385;28;20549;-47
2021/04/19 11:54:50;;;;;;;7.70;6.70;;;15.10;99.90;;;;;;5015652;28;20204;-51
2021/04/19 11:57:16;;;;;;;6.47;5.87;;;15.10;99.90;;;;;;5030151;28;20207;-49
2021/04/19 11:59:43;;;;;;;6.03;5.43;;;15.20;99.90;;;;;;5016852;28;20273;-53
2021/04/19 12:02:09;;;;;;;6.10;5.40;;;15.30;99.90;;;;;;5020520;28;20281;-47
2021/04/19 12:04:35;;;;;;;5.63;5.20;;;15.40;99.90;;;;;;5024255;28;20196;-51
2021/04/19 12:07:03;;;;;;;7.17;5.30;;;15.50;99.90;;;;;;5019204;28;20480;-48
2021/04/19 12:09:30;;;;;;;5.60;5.07;;;15.50;99.90;;;;;;5016426;28;20212;-49
2021/04/19 12:11:56;;;;;;;5.90;5.33;;;15.50;99.90;;;;;;5018051;28;20188;-51
2021/04/19 12:14:24;;;;;;;6.03;5.50;;;15.60;99.90;;;;;;5018569;28;20192;-49
2021/04/19 12:16:51;;;;;;;5.53;5.13;;;15.60;99.90;;;;;;5020586;28;20192;-52
2021/04/19 12:19:17;;;;;;;6.77;6.13;;;15.50;99.90;;;;;;5022908;28;20222;-47
2021/04/19 12:21:43;;;;;;;6.93;6.33;;;15.70;99.90;;;;;;5021282;28;20311;-50
2021/04/19 12:24:10;;;;;;;7.30;6.60;;;15.70;99.90;;;;;;5011476;28;20211;-49
2021/04/19 12:26:36;;;;;;;7.07;6.20;;;15.80;99.90;;;;;;5011854;28;20239;-50
2021/04/19 12:29:03;;;;;;;7.30;6.47;;;15.80;99.90;;;;;;5022983;28;20190;-50
2021/04/19 12:31:29;;;;;;;7.93;6.53;;;16.00;99.90;;;;;;5013052;28;20319;-53
2021/04/19 12:33:56;;;;;;;7.23;6.53;;;16.00;99.90;;;;;;5019477;28;20223;-49
2021/04/19 12:36:22;;;;;;;8.80;7.60;;;16.00;99.90;;;;;;5022880;28;20207;-52
2021/04/19 12:38:48;;;;;;;8.53;7.63;;;16.10;99.90;;;;;;5015819;28;20216;-49
2021/04/19 12:41:15;;;;;;;8.03;6.43;;;16.10;99.90;;;;;;5010760;28;20221;-50
2021/04/19 12:43:41;;;;;;;7.57;6.47;;;16.10;99.90;;;;;;5020844;28;20677;-49
2021/04/19 12:46:07;;;;;;;6.70;6.10;;;16.10;99.90;;;;;;5017486;28;20207;-50
2021/04/19 12:48:39;;;;;;;7.47;6.17;;;16.10;99.90;;;;;;5021004;28;20210;-48